Time;durP1;ratioP1;P1;durP2;ratioP2;P2;SDS_P1;SDS_P2;PMS_P1;PMS_P2;Temp;Humidity;BMP_temperature;BMP_pressure;BME280_temperature;BME280_humidity;BME280_pressure;Samples;Min_cycle;Max_cycle;Signal;HPM_P1;HPM_P2
2023/10/10 00:00:07;;;;;;;;;;;;;;;-147.89;100.00;60788.38;4233314;28;20006;-63
2023/10/10 00:02:21;;;;;;;;;;;;;;;-147.89;100.00;60788.38;4232966;28;19977;-63
2023/10/10 00:04:25;;;;;;;;;;;;;;;-147.89;100.00;60788.38;4233184;28;19928;-63
2023/10/10 00:06:28;;;;;;;;;;;;;;;-147.89;100.00;60788.38;4232938;28;19934;-63
2023/10/10 00:08:43;;;;;;;;;;;;;;;-147.89;100.00;60788.38;4233068;28;20026;-62
2023/10/10 00:10:49;;;;;;;;;;;;;;;-147.89;100.00;60788.38;4232778;28;19924;-62
2023/10/10 00:12:50;;;;;;;;;;;;;;;-147.89;100.00;60788.38;4233101;28;19947;-63
2023/10/10 00:14:53;;;;;;;;;;;;;;;-147.89;100.00;60788.38;4232816;28;19939;-64
2023/10/10 00:16:55;;;;;;;;;;;;;;;-147.89;100.00;60788.38;4233033;28;19924;-63
2023/10/10 00:18:58;;;;;;;;;;;;;;;-147.89;100.00;60788.38;4232974;28;20465;-63
2023/10/10 00:21:06;;;;;;;;;;;;;;;-147.89;100.00;60788.38;4232804;28;19924;-63
2023/10/10 00:23:11;;;;;;;;;;;;;;;-147.89;100.00;60788.38;4232571;28;19924;-63
2023/10/10 00:25:23;;;;;;;;;;;;;;;-147.89;100.00;60788.38;4232487;28;19928;-63
2023/10/10 00:27:25;;;;;;;;;;;;;;;-147.89;100.00;60788.38;4232783;28;20333;-63
2023/10/10 00:29:28;;;;;;;;;;;;;;;-147.89;100.00;60788.38;4232721;28;19924;-63
2023/10/10 00:31:31;;;;;;;;;;;;;;;-147.89;100.00;60788.38;4232879;28;20385;-63
2023/10/10 00:33:34;;;;;;;;;;;;;;;-147.89;100.00;60788.38;4232819;28;19928;-63
2023/10/10 00:35:35;;;;;;;;;;;;;;;-147.89;100.00;60788.38;4232450;28;19924;-63
2023/10/10 00:37:37;;;;;;;;;;;;;;;-147.89;100.00;60788.38;4232732;28;19931;-63
2023/10/10 00:39:39;;;;;;;;;;;;;;;-147.89;100.00;60788.38;4232357;28;20274;-63
2023/10/10 00:42:03;;;;;;;;;;;;;;;-147.89;100.00;60788.38;4232771;28;19924;-61
2023/10/10 00:44:05;;;;;;;;;;;;;;;-147.89;100.00;60788.38;4232376;28;19924;-64
2023/10/10 00:46:07;;;;;;;;;;;;;;;-147.89;100.00;60788.38;4232489;28;19978;-65
2023/10/10 00:48:09;;;;;;;;;;;;;;;-147.89;100.00;60788.38;4232640;28;19927;-63
2023/10/10 00:50:17;;;;;;;;;;;;;;;-147.89;100.00;60788.38;4232562;28;19930;-62
2023/10/10 00:52:19;;;;;;;;;;;;;;;-147.89;100.00;60788.38;4232318;28;19977;-63
2023/10/10 00:56:29;;;;;;;;;;;;;;;-147.89;100.00;60788.38;4232185;28;20321;-63
2023/10/10 00:58:40;;;;;;;;;;;;;;;-147.89;100.00;60788.38;4232291;28;19923;-62
2023/10/10 01:00:44;;;;;;;;;;;;;;;-147.89;100.00;60788.38;4232471;28;19924;-63
2023/10/10 01:02:47;;;;;;;;;;;;;;;-147.89;100.00;60788.38;4232336;28;19924;-63
2023/10/10 01:06:54;;;;;;;;;;;;;;;-147.89;100.00;60788.38;4231983;28;19935;-62
2023/10/10 01:09:52;;;;;;;;;;;;;;;-147.89;100.00;60788.38;4213922;28;20331;-62
2023/10/10 01:11:19;;;;;;;;;;;;;;;-147.89;100.00;60788.38;4221403;28;19947;-63
2023/10/10 01:13:21;;;;;;;;;;;;;;;-147.89;100.00;60788.38;4231940;28;19970;-63
2023/10/10 01:15:33;;;;;;;;;;;;;;;-147.89;100.00;60788.38;4231971;28;19934;-63
2023/10/10 01:17:35;;;;;;;;;;;;;;;-147.89;100.00;60788.38;4231786;28;19924;-63
2023/10/10 01:19:38;;;;;;;;;;;;;;;-147.89;100.00;60788.38;4231913;28;19924;-64
2023/10/10 01:21:50;;;;;;;;;;;;;;;-147.89;100.00;60788.38;4232065;28;19924;-64
2023/10/10 01:23:52;;;;;;;;;;;;;;;-147.89;100.00;60788.38;4231452;28;19977;-64
2023/10/10 01:26:05;;;;;;;;;;;;;;;-147.89;100.00;60788.38;4231798;28;19923;-65
2023/10/10 01:30:43;;;;;;;;;;;;;;;-147.89;100.00;60788.38;4231788;28;19976;-62
2023/10/10 01:32:50;;;;;;;;;;;;;;;-147.89;100.00;60788.38;4231422;28;19928;-65
2023/10/10 01:34:52;;;;;;;;;;;;;;;-147.89;100.00;60788.38;4247282;27;19972;-65
2023/10/10 01:36:54;;;;;;;;;;;;;;;-147.89;100.00;60788.38;4231307;28;19935;-65
2023/10/10 01:39:07;;;;;;;;;;;;;;;-147.89;100.00;60788.38;4231693;28;19980;-63
2023/10/10 01:41:15;;;;;;;;;;;;;;;-147.89;100.00;60788.38;4231643;28;19923;-63
2023/10/10 01:43:19;;;;;;;;;;;;;;;-147.89;100.00;60788.38;4231006;28;19928;-63
2023/10/10 01:45:21;;;;;;;;;;;;;;;-147.89;100.00;60788.38;4231499;28;20381;-63
2023/10/10 01:47:26;;;;;;;;;;;;;;;-147.89;100.00;60788.38;4231495;28;19949;-63
2023/10/10 01:49:31;;;;;;;;;;;;;;;-147.89;100.00;60788.38;4231532;28;19977;-63
2023/10/10 01:51:33;;;;;;;;;;;;;;;-147.89;100.00;60788.38;4231079;28;20396;-63
2023/10/10 01:53:40;;;;;;;;;;;;;;;-147.89;100.00;60788.38;4231016;28;19984;-63
2023/10/10 01:55:41;;;;;;;;;;;;;;;-147.89;100.00;60788.38;4231187;28;20297;-63
2023/10/10 01:57:43;;;;;;;;;;;;;;;-147.89;100.00;60788.38;4231247;28;20034;-63
2023/10/10 01:59:44;;;;;;;;;;;;;;;-147.89;100.00;60788.38;4231166;28;20395;-63
2023/10/10 02:01:47;;;;;;;;;;;;;;;-147.89;100.00;60788.38;4231261;28;20065;-64
2023/10/10 02:03:50;;;;;;;;;;;;;;;-147.89;100.00;60788.38;4231221;28;20446;-63
2023/10/10 02:05:53;;;;;;;;;;;;;;;-147.89;100.00;60788.38;4230893;28;20449;-64
2023/10/10 02:07:54;;;;;;;;;;;;;;;-147.89;100.00;60788.38;4231169;28;19924;-63
2023/10/10 02:10:30;;;;;;;;;;;;;;;-147.89;100.00;60788.38;4231106;28;19927;-64
2023/10/10 02:12:26;;;;;;;;;;;;;;;-147.89;100.00;60788.38;4227932;28;19931;-63
2023/10/10 02:14:30;;;;;;;;;;;;;;;-147.89;100.00;60788.38;4230966;28;19966;-62
2023/10/10 02:16:39;;;;;;;;;;;;;;;-147.89;100.00;60788.38;4230918;28;20346;-63
2023/10/10 02:18:44;;;;;;;;;;;;;;;-147.89;100.00;60788.38;4231024;28;19947;-63
2023/10/10 02:22:47;;;;;;;;;;;;;;;-147.89;100.00;60788.38;4230942;28;19923;-63
2023/10/10 02:24:51;;;;;;;;;;;;;;;-147.89;100.00;60788.38;4230992;28;19930;-63
2023/10/10 02:26:53;;;;;;;;;;;;;;;-147.89;100.00;60788.38;4230858;28;19924;-63
2023/10/10 02:31:18;;;;;;;;;;;;;;;-147.89;100.00;60788.38;4230765;28;20423;-63
2023/10/10 02:35:27;;;;;;;;;;;;;;;-147.89;100.00;60788.38;4230409;28;19934;-64
2023/10/10 02:39:32;;;;;;;;;;;;;;;-147.89;100.00;60788.38;4230483;28;20030;-63
2023/10/10 02:41:47;;;;;;;;;;;;;;;-147.89;100.00;60788.38;4230800;28;19947;-63
2023/10/10 02:43:56;;;;;;;;;;;;;;;-147.89;100.00;60788.38;4230593;28;19943;-62
2023/10/10 02:45:58;;;;;;;;;;;;;;;-147.89;100.00;60788.38;4230734;28;19924;-63
2023/10/10 02:48:06;;;;;;;;;;;;;;;-147.89;100.00;60788.38;4230838;28;20007;-63
2023/10/10 02:50:13;;;;;;;;;;;;;;;-147.89;100.00;60788.38;4230433;28;19924;-65
2023/10/10 02:52:15;;;;;;;;;;;;;;;-147.89;100.00;60788.38;4230788;28;20326;-63
2023/10/10 02:54:36;;;;;;;;;;;;;;;-147.89;100.00;60788.38;4229714;28;19928;-63
2023/10/10 02:56:43;;;;;;;;;;;;;;;-147.89;100.00;60788.38;4230649;28;19970;-63
2023/10/10 02:58:47;;;;;;;;;;;;;;;-147.89;100.00;60788.38;4230426;28;19981;-65
2023/10/10 03:00:49;;;;;;;;;;;;;;;-147.89;100.00;60788.38;4230483;28;19924;-63
2023/10/10 03:02:53;;;;;;;;;;;;;;;-147.89;100.00;60788.38;4230423;28;19966;-65
2023/10/10 03:07:05;;;;;;;;;;;;;;;-147.89;100.00;60788.38;4230506;28;20022;-65
2023/10/10 03:09:14;;;;;;;;;;;;;;;-147.89;100.00;60788.38;4230382;28;20281;-65
2023/10/10 03:11:35;;;;;;;;;;;;;;;-147.89;100.00;60788.38;4230514;28;20362;-64
2023/10/10 03:13:37;;;;;;;;;;;;;;;-147.89;100.00;60788.38;4230372;28;19963;-65
2023/10/10 03:15:40;;;;;;;;;;;;;;;-147.89;100.00;60788.38;4230346;28;20017;-64
2023/10/10 03:17:48;;;;;;;;;;;;;;;-147.89;100.00;60788.38;4230429;28;20000;-64
2023/10/10 03:20:02;;;;;;;;;;;;;;;-147.89;100.00;60788.38;4230154;28;20011;-64
2023/10/10 03:22:27;;;;;;;;;;;;;;;-147.89;100.00;60788.38;4230243;28;20266;-65
2023/10/10 03:26:52;;;;;;;;;;;;;;;-147.89;100.00;60788.38;4230547;28;19928;-64
2023/10/10 03:29:03;;;;;;;;;;;;;;;-147.89;100.00;60788.38;4230196;28;20352;-64
2023/10/10 03:31:24;;;;;;;;;;;;;;;-147.89;100.00;60788.38;4230481;28;20370;-65
2023/10/10 03:33:45;;;;;;;;;;;;;;;-147.89;100.00;60788.38;4229722;28;19928;-64
2023/10/10 03:35:58;;;;;;;;;;;;;;;-147.89;100.00;60788.38;4230295;28;19924;-64
2023/10/10 03:38:25;;;;;;;;;;;;;;;-147.89;100.00;60788.38;4230303;28;20272;-65
2023/10/10 03:40:46;;;;;;;;;;;;;;;-147.89;100.00;60788.38;4230043;28;19924;-64
2023/10/10 05:23:37;;;;;;;;;;;;;;;-147.89;100.00;60788.38;4179666;28;19929;-63
2023/10/10 05:25:41;;;;;;;;;;;;;;;-147.89;100.00;60788.38;4179931;28;20362;-64
2023/10/10 05:27:43;;;;;;;;;;;;;;;-147.89;100.00;60788.38;4179726;28;19925;-64
2023/10/10 05:29:44;;;;;;;;;;;;;;;-147.89;100.00;60788.38;4209337;28;19930;-64
2023/10/10 05:31:51;;;;;;;;;;;;;;;-147.89;100.00;60788.38;4214970;28;20318;-64
2023/10/10 05:33:53;;;;;;;;;;;;;;;-147.89;100.00;60788.38;4214971;28;19981;-63
2023/10/10 05:35:58;;;;;;;;;;;;;;;-147.89;100.00;60788.38;4214819;28;19924;-64
2023/10/10 05:38:00;;;;;;;;;;;;;;;-147.89;100.00;60788.38;4214680;28;19963;-64
2023/10/10 05:40:03;;;;;;;;;;;;;;;-147.89;100.00;60788.38;4214728;28;19924;-64
2023/10/10 05:42:08;;;;;;;;;;;;;;;-147.89;100.00;60788.38;4214626;28;20385;-64
2023/10/10 05:44:13;;;;;;;;;;;;;;;-147.89;100.00;60788.38;4214197;28;19928;-65
2023/10/10 05:46:15;;;;;;;;;;;;;;;-147.89;100.00;60788.38;4214590;28;19924;-64
2023/10/10 05:48:17;;;;;;;;;;;;;;;-147.89;100.00;60788.38;4214796;28;19950;-64
2023/10/10 05:50:19;;;;;;;;;;;;;;;-147.89;100.00;60788.38;4214419;28;19924;-63
2023/10/10 05:52:20;;;;;;;;;;;;;;;-147.89;100.00;60788.38;4214582;28;19930;-64
2023/10/10 05:54:22;;;;;;;;;;;;;;;-147.89;100.00;60788.38;4214508;28;20297;-64
2023/10/10 05:56:23;;;;;;;;;;;;;;;-147.89;100.00;60788.38;4214427;28;20278;-64
2023/10/10 05:58:28;;;;;;;;;;;;;;;-147.89;100.00;60788.38;4214023;28;19978;-63
2023/10/10 06:00:44;;;;;;;;;;;;;;;-147.89;100.00;60788.38;4214265;28;19928;-62
2023/10/10 06:02:46;;;;;;;;;;;;;;;-147.89;100.00;60788.38;4214295;28;19931;-64
2023/10/10 06:04:47;;;;;;;;;;;;;;;-147.89;100.00;60788.38;4214479;28;20008;-64
2023/10/10 06:06:49;;;;;;;;;;;;;;;-147.89;100.00;60788.38;4214590;28;19930;-64
2023/10/10 06:09:00;;;;;;;;;;;;;;;-147.89;100.00;60788.38;4214380;28;19956;-64
2023/10/10 06:11:03;;;;;;;;;;;;;;;-147.89;100.00;60788.38;4214394;28;19928;-64
2023/10/10 06:13:06;;;;;;;;;;;;;;;-147.89;100.00;60788.38;4213877;28;19928;-64
2023/10/10 06:15:08;;;;;;;;;;;;;;;-147.89;100.00;60788.38;4214179;28;20412;-64
2023/10/10 06:17:10;;;;;;;;;;;;;;;-147.89;100.00;60788.38;4219735;28;20072;-63
2023/10/10 06:19:20;;;;;;;;;;;;;;;-147.89;100.00;60788.38;4230988;28;19928;-63
2023/10/10 06:21:22;;;;;;;;;;;;;;;-147.89;100.00;60788.38;4231128;28;20023;-63
2023/10/10 06:23:25;;;;;;;;;;;;;;;-147.89;100.00;60788.38;4230623;28;19923;-63
2023/10/10 06:25:29;;;;;;;;;;;;;;;-147.89;100.00;60788.38;4231037;28;20364;-63
2023/10/10 06:27:33;;;;;;;;;;;;;;;-147.89;100.00;60788.38;4246169;27;20353;-63
2023/10/10 06:29:40;;;;;;;;;;;;;;;-147.89;100.00;60788.38;4230773;28;19931;-63
2023/10/10 06:31:44;;;;;;;;;;;;;;;-147.89;100.00;60788.38;4230877;28;19967;-63
2023/10/10 06:33:49;;;;;;;;;;;;;;;-147.89;100.00;60788.38;4230682;28;20357;-62
2023/10/10 06:35:52;;;;;;;;;;;;;;;-147.89;100.00;60788.38;4246504;27;19962;-63
2023/10/10 06:37:54;;;;;;;;;;;;;;;-147.89;100.00;60788.38;4230649;28;19924;-62
2023/10/10 06:39:56;;;;;;;;;;;;;;;-147.89;100.00;60788.38;4230724;28;19939;-61
2023/10/10 06:41:58;;;;;;;;;;;;;;;-147.89;100.00;60788.38;4230436;28;20026;-62
2023/10/10 06:44:00;;;;;;;;;;;;;;;-147.89;100.00;60788.38;4230476;28;19928;-62
2023/10/10 06:46:03;;;;;;;;;;;;;;;-147.89;100.00;60788.38;4230694;28;19986;-61
2023/10/10 06:48:05;;;;;;;;;;;;;;;-147.89;100.00;60788.38;4230559;28;19969;-63
2023/10/10 06:50:10;;;;;;;;;;;;;;;-147.89;100.00;60788.38;4230440;28;20185;-63
2023/10/10 06:52:18;;;;;;;;;;;;;;;-147.89;100.00;60788.38;4230486;28;20018;-63
2023/10/10 06:54:27;;;;;;;;;;;;;;;-147.89;100.00;60788.38;4230696;28;19924;-63
2023/10/10 06:56:44;;;;;;;;;;;;;;;-147.89;100.00;60788.38;4229991;28;19935;-62
2023/10/10 06:58:45;;;;;;;;;;;;;;;-147.89;100.00;60788.38;4230398;28;20274;-63
2023/10/10 07:00:52;;;;;;;;;;;;;;;-147.89;100.00;60788.38;4230490;28;20064;-62
2023/10/10 07:02:55;;;;;;;;;;;;;;;-147.89;100.00;60788.38;4230588;28;19924;-63
2023/10/10 07:04:57;;;;;;;;;;;;;;;-147.89;100.00;60788.38;4230460;28;19924;-62
2023/10/10 07:07:00;;;;;;;;;;;;;;;-147.89;100.00;60788.38;4230586;28;19981;-62
2023/10/10 07:09:45;;;;;;;;;;;;;;;-147.89;100.00;60788.38;4212720;28;20347;-62
2023/10/10 07:11:27;;;;;;;;;;;;;;;-147.89;100.00;60788.38;4221929;28;19924;-63
2023/10/10 07:13:29;;;;;;;;;;;;;;;-147.89;100.00;60788.38;4212625;28;19924;-63
2023/10/10 07:15:35;;;;;;;;;;;;;;;-147.89;100.00;60788.38;4230392;28;19924;-62
2023/10/10 07:17:38;;;;;;;;;;;;;;;-147.89;100.00;60788.38;4230222;28;19962;-62
2023/10/10 07:22:03;;;;;;;;;;;;;;;-147.89;100.00;60788.38;4230156;28;19924;-63
2023/10/10 07:24:13;;;;;;;;;;;;;;;-147.89;100.00;60788.38;4230213;28;19930;-63
2023/10/10 07:26:19;;;;;;;;;;;;;;;-147.89;100.00;60788.38;4230169;28;20274;-64
2023/10/10 07:28:24;;;;;;;;;;;;;;;-147.89;100.00;60788.38;4230287;28;20006;-64
2023/10/10 07:30:34;;;;;;;;;;;;;;;-147.89;100.00;60788.38;4230329;28;20007;-63
2023/10/10 07:32:39;;;;;;;;;;;;;;;-147.89;100.00;60788.38;4212177;28;20710;-63
2023/10/10 07:34:42;;;;;;;;;;;;;;;-147.89;100.00;60788.38;4230159;28;19924;-63
2023/10/10 07:36:50;;;;;;;;;;;;;;;-147.89;100.00;60788.38;4229527;28;20212;-63
2023/10/10 07:39:17;;;;;;;;;;;;;;;-147.89;100.00;60788.38;4230122;28;19924;-63
2023/10/10 07:41:19;;;;;;;;;;;;;;;-147.89;100.00;60788.38;4232248;28;19924;-62
2023/10/10 07:43:26;;;;;;;;;;;;;;;-147.89;100.00;60788.38;4233402;28;19924;-62
2023/10/10 07:45:43;;;;;;;;;;;;;;;-147.89;100.00;60788.38;4233578;28;19932;-63
2023/10/10 07:50:08;;;;;;;;;;;;;;;-147.89;100.00;60788.38;4233278;28;20007;-62
2023/10/10 07:52:16;;;;;;;;;;;;;;;-147.89;100.00;60788.38;4233400;28;20350;-63
2023/10/10 07:54:29;;;;;;;;;;;;;;;-147.89;100.00;60788.38;4247910;27;19927;-63
2023/10/10 07:56:31;;;;;;;;;;;;;;;-147.89;100.00;60788.38;4233280;28;19953;-64
2023/10/10 07:58:43;;;;;;;;;;;;;;;-147.89;100.00;60788.38;4233357;28;19964;-63
2023/10/10 08:01:03;;;;;;;;;;;;;;;-147.89;100.00;60788.38;4233301;28;19924;-63
2023/10/10 08:03:05;;;;;;;;;;;;;;;-147.89;100.00;60788.38;4233181;28;19985;-63
2023/10/10 08:05:11;;;;;;;;;;;;;;;-147.89;100.00;60788.38;4233092;28;20036;-63
2023/10/10 08:07:18;;;;;;;;;;;;;;;-147.89;100.00;60788.38;4233039;28;19923;-63
2023/10/10 08:09:21;;;;;;;;;;;;;;;-147.89;100.00;60788.38;4232948;28;20054;-62
2023/10/10 08:11:35;;;;;;;;;;;;;;;-147.89;100.00;60788.38;4232772;28;19959;-62
2023/10/10 08:13:38;;;;;;;;;;;;;;;-147.89;100.00;60788.38;4232981;28;20393;-63
2023/10/10 08:17:58;;;;;;;;;;;;;;;-147.89;100.00;60788.38;4233009;28;19985;-61
2023/10/10 08:20:31;;;;;;;;;;;;;;;-147.89;100.00;60788.38;4232920;28;19923;-63
2023/10/10 08:22:25;;;;;;;;;;;;;;;-147.89;100.00;60788.38;4232674;28;19924;-63
2023/10/10 08:24:27;;;;;;;;;;;;;;;-147.89;100.00;60788.38;4232735;28;19923;-63
2023/10/10 08:26:29;;;;;;;;;;;;;;;-147.89;100.00;60788.38;4232885;28;19934;-64
2023/10/10 08:28:31;;;;;;;;;;;;;;;-147.89;100.00;60788.38;4232921;28;19932;-63
2023/10/10 08:30:33;;;;;;;;;;;;;;;-147.89;100.00;60788.38;4232776;28;19928;-64
2023/10/10 08:32:35;;;;;;;;;;;;;;;-147.89;100.00;60788.38;4232616;28;19928;-63
2023/10/10 08:34:39;;;;;;;;;;;;;;;-147.89;100.00;60788.38;4232768;28;19924;-63
2023/10/10 08:36:43;;;;;;;;;;;;;;;-147.89;100.00;60788.38;4214670;28;20454;-62
2023/10/10 08:38:45;;;;;;;;;;;;;;;-147.89;100.00;60788.38;4232382;28;20027;-63
2023/10/10 08:40:56;;;;;;;;;;;;;;;-147.89;100.00;60788.38;4232563;28;19924;-63
2023/10/10 08:42:59;;;;;;;;;;;;;;;-147.89;100.00;60788.38;4232708;28;20442;-63
2023/10/10 08:45:02;;;;;;;;;;;;;;;-147.89;100.00;60788.38;4232536;28;19969;-63
2023/10/10 08:47:07;;;;;;;;;;;;;;;-147.89;100.00;60788.38;4232436;28;20014;-63
2023/10/10 08:49:10;;;;;;;;;;;;;;;-147.89;100.00;60788.38;4232481;28;20010;-62
2023/10/10 08:51:11;;;;;;;;;;;;;;;-147.89;100.00;60788.38;4231946;28;19977;-63
2023/10/10 08:53:13;;;;;;;;;;;;;;;-147.89;100.00;60788.38;4230884;28;20269;-61
2023/10/10 08:55:18;;;;;;;;;;;;;;;-147.89;100.00;60788.38;4232287;28;20354;-64
2023/10/10 08:57:27;;;;;;;;;;;;;;;-147.89;100.00;60788.38;4232153;28;20026;-63
2023/10/10 08:59:30;;;;;;;;;;;;;;;-147.89;100.00;60788.38;4232270;28;19931;-63
2023/10/10 09:01:39;;;;;;;;;;;;;;;-147.89;100.00;60788.38;4232489;28;19924;-63
2023/10/10 09:03:45;;;;;;;;;;;;;;;-147.89;100.00;60788.38;4232270;28;19924;-63
2023/10/10 09:05:47;;;;;;;;;;;;;;;-147.89;100.00;60788.38;4232282;28;19924;-63
2023/10/10 09:07:55;;;;;;;;;;;;;;;-147.89;100.00;60788.38;4231811;28;20189;-63
2023/10/10 09:10:04;;;;;;;;;;;;;;;-147.89;100.00;60788.38;4232168;28;20002;-63
2023/10/10 09:12:14;;;;;;;;;;;;;;;-147.89;100.00;60788.38;4232065;28;19928;-63
2023/10/10 09:14:17;;;;;;;;;;;;;;;-147.89;100.00;60788.38;4232164;28;19932;-63
2023/10/10 09:16:40;;;;;;;;;;;;;;;-147.89;100.00;60788.38;4232007;28;19928;-63
2023/10/10 09:18:42;;;;;;;;;;;;;;;-147.89;100.00;60788.38;4232175;28;20393;-63
2023/10/10 09:20:47;;;;;;;;;;;;;;;-147.89;100.00;60788.38;4231569;28;20007;-63
2023/10/10 09:22:52;;;;;;;;;;;;;;;-147.89;100.00;60788.38;4231710;28;19946;-63
2023/10/10 09:24:59;;;;;;;;;;;;;;;-147.89;100.00;60788.38;4231988;28;20019;-61
2023/10/10 09:27:15;;;;;;;;;;;;;;;-147.89;100.00;60788.38;4231838;28;19924;-61
2023/10/10 09:29:28;;;;;;;;;;;;;;;-147.89;100.00;60788.38;4231813;28;19924;-62
2023/10/10 09:31:31;;;;;;;;;;;;;;;-147.89;100.00;60788.38;4231983;28;20386;-63
2023/10/10 09:33:33;;;;;;;;;;;;;;;-147.89;100.00;60788.38;4231685;28;19967;-63
2023/10/10 09:35:39;;;;;;;;;;;;;;;-147.89;100.00;60788.38;4231328;28;19923;-63
2023/10/10 09:37:44;;;;;;;;;;;;;;;-147.89;100.00;60788.38;4231416;28;19924;-64
2023/10/10 09:39:54;;;;;;;;;;;;;;;-147.89;100.00;60788.38;4231748;28;19924;-63
2023/10/10 09:46:36;;;;;;;;;;;;;;;-147.89;100.00;60788.38;4231497;28;19928;-63
2023/10/10 09:51:08;;;;;;;;;;;;;;;-147.89;100.00;60788.38;4231100;28;20256;-63
2023/10/10 09:53:19;;;;;;;;;;;;;;;-147.89;100.00;60788.38;4231559;28;20038;-63
2023/10/10 09:57:26;;;;;;;;;;;;;;;-147.89;100.00;60788.38;4231400;28;19924;-63
2023/10/10 09:59:29;;;;;;;;;;;;;;;-147.89;100.00;60788.38;4231462;28;20063;-63
2023/10/10 10:01:44;;;;;;;;;;;;;;;-147.89;100.00;60788.38;4231373;28;20017;-62
2023/10/10 10:03:55;;;;;;;;;;;;;;;-147.89;100.00;60788.38;4230814;28;19924;-63
2023/10/10 10:06:00;;;;;;;;;;;;;;;-147.89;100.00;60788.38;4230742;28;19924;-62
2023/10/10 10:08:12;;;;;;;;;;;;;;;-147.89;100.00;60788.38;4231303;28;19923;-61
2023/10/10 10:10:47;;;;;;;;;;;;;;;-147.89;100.00;60788.38;4231062;28;19924;-63
2023/10/10 10:13:08;;;;;;;;;;;;;;;-147.89;100.00;60788.38;4231269;28;19924;-63
2023/10/10 10:15:19;;;;;;;;;;;;;;;-147.89;100.00;60788.38;4231052;28;19927;-63
2023/10/10 10:17:26;;;;;;;;;;;;;;;-147.89;100.00;60788.38;4230890;28;20022;-63
2023/10/10 10:19:28;;;;;;;;;;;;;;;-147.89;100.00;60788.38;4229181;28;19955;-61
2023/10/10 10:21:30;;;;;;;;;;;;;;;-147.89;100.00;60788.38;4225822;28;19923;-60
2023/10/10 10:23:45;;;;;;;;;;;;;;;-147.89;100.00;60788.38;4225698;28;20361;-62
2023/10/10 10:25:52;;;;;;;;;;;;;;;-147.89;100.00;60788.38;4222327;28;20296;-58
2023/10/10 10:28:14;;;;;;;;;;;;;;;-147.89;100.00;60788.38;4214093;28;19966;-59
2023/10/10 10:32:24;;;;;;;;;;;;;;;-147.89;100.00;60788.38;4229581;28;19932;-59
2023/10/10 10:34:35;;;;;;;;;;;;;;;-147.89;100.00;60788.38;4227344;28;19967;-60
2023/10/10 10:36:41;;;;;;;;;;;;;;;-147.89;100.00;60788.38;4229919;28;20014;-63
2023/10/10 10:39:18;;;;;;;;;;;;;;;-147.89;100.00;60788.38;4227305;28;19966;-62
2023/10/10 10:41:16;;;;;;;;;;;;;;;-147.89;100.00;60788.38;4227397;28;19924;-61
2023/10/10 10:43:20;;;;;;;;;;;;;;;-147.89;100.00;60788.38;4229684;28;19927;-60
2023/10/10 10:45:26;;;;;;;;;;;;;;;-147.89;100.00;60788.38;4227147;28;20388;-64
2023/10/10 10:47:45;;;;;;;;;;;;;;;-147.89;100.00;60788.38;4229478;28;20056;-60
2023/10/10 10:49:57;;;;;;;;;;;;;;;-147.89;100.00;60788.38;4227705;28;19982;-61
2023/10/10 10:52:17;;;;;;;;;;;;;;;-147.89;100.00;60788.38;4229478;28;19931;-61
2023/10/10 10:54:35;;;;;;;;;;;;;;;-147.89;100.00;60788.38;4229417;28;20475;-58
2023/10/10 10:56:37;;;;;;;;;;;;;;;-147.89;100.00;60788.38;4228997;28;20308;-64
2023/10/10 11:01:07;;;;;;;;;;;;;;;-147.89;100.00;60788.38;4228916;28;19924;-66
2023/10/10 11:03:11;;;;;;;;;;;;;;;-147.89;100.00;60788.38;4227760;28;19931;-63
2023/10/10 11:05:13;;;;;;;;;;;;;;;-147.89;100.00;60788.38;4229459;28;19924;-71
2023/10/10 11:07:27;;;;;;;;;;;;;;;-147.89;100.00;60788.38;4211020;28;19978;-65
2023/10/10 11:09:31;;;;;;;;;;;;;;;-147.89;100.00;60788.38;4224628;28;20382;-60
2023/10/10 11:13:39;;;;;;;;;;;;;;;-147.89;100.00;60788.38;4229208;28;19923;-64
2023/10/10 11:15:40;;;;;;;;;;;;;;;-147.89;100.00;60788.38;4230233;28;20472;-63
2023/10/10 11:17:51;;;;;;;;;;;;;;;-147.89;100.00;60788.38;4233120;28;20480;-65
2023/10/10 11:19:55;;;;;;;;;;;;;;;-147.89;100.00;60788.38;4227483;28;19924;-64
2023/10/10 11:21:59;;;;;;;;;;;;;;;-147.89;100.00;60788.38;4216873;28;20326;-65
2023/10/10 11:24:04;;;;;;;;;;;;;;;-147.89;100.00;60788.38;4221409;28;19923;-68
2023/10/10 11:26:08;;;;;;;;;;;;;;;-147.89;100.00;60788.38;4232026;28;20434;-65
2023/10/10 11:28:23;;;;;;;;;;;;;;;-147.89;100.00;60788.38;4214740;28;19997;-63
2023/10/10 11:30:31;;;;;;;;;;;;;;;-147.89;100.00;60788.38;4232776;28;19924;-65
2023/10/10 11:32:46;;;;;;;;;;;;;;;-147.89;100.00;60788.38;4232463;28;20300;-63
2023/10/10 11:34:49;;;;;;;;;;;;;;;-147.89;100.00;60788.38;4233001;28;19931;-64
2023/10/10 11:37:11;;;;;;;;;;;;;;;-147.89;100.00;60788.38;4233011;28;19984;-64
2023/10/10 11:39:30;;;;;;;;;;;;;;;-147.89;100.00;60788.38;4232949;28;20018;-66
2023/10/10 11:41:35;;;;;;;;;;;;;;;-147.89;100.00;60788.38;4232851;28;19924;-63
2023/10/10 11:43:37;;;;;;;;;;;;;;;-147.89;100.00;60788.38;4232675;28;20293;-62
2023/10/10 11:45:51;;;;;;;;;;;;;;;-147.89;100.00;60788.38;4232365;28;20517;-62
2023/10/10 11:48:00;;;;;;;;;;;;;;;-147.89;100.00;60788.38;4232780;28;19924;-62
2023/10/10 11:50:05;;;;;;;;;;;;;;;-147.89;100.00;60788.38;4232751;28;20302;-61
2023/10/10 11:52:16;;;;;;;;;;;;;;;-147.89;100.00;60788.38;4232585;28;19924;-63
2023/10/10 11:54:25;;;;;;;;;;;;;;;-147.89;100.00;60788.38;4232721;28;20365;-63
2023/10/10 11:56:27;;;;;;;;;;;;;;;-147.89;100.00;60788.38;4232514;28;19927;-62
2023/10/10 11:58:36;;;;;;;;;;;;;;;-147.89;100.00;60788.38;4232558;28;20022;-63
2023/10/10 12:00:59;;;;;;;;;;;;;;;-147.89;100.00;60788.38;4232267;28;19958;-64
2023/10/10 12:03:04;;;;;;;;;;;;;;;-147.89;100.00;60788.38;4232484;28;19977;-63
2023/10/10 12:05:35;;;;;;;;;;;;;;;-147.89;100.00;60788.38;4232317;28;20014;-64
2023/10/10 12:07:30;;;;;;;;;;;;;;;-147.89;100.00;60788.38;4232234;28;19924;-64
2023/10/10 12:09:32;;;;;;;;;;;;;;;-147.89;100.00;60788.38;4230961;28;20330;-64
2023/10/10 12:11:38;;;;;;;;;;;;;;;-147.89;100.00;60788.38;4232466;28;20010;-64
2023/10/10 12:13:45;;;;;;;;;;;;;;;-147.89;100.00;60788.38;4232174;28;19924;-63
2023/10/10 12:15:46;;;;;;;;;;;;;;;-147.89;100.00;60788.38;4232048;28;19939;-64
2023/10/10 12:17:48;;;;;;;;;;;;;;;-147.89;100.00;60788.38;4231906;28;19963;-66
2023/10/10 12:19:50;;;;;;;;;;;;;;;-147.89;100.00;60788.38;4223712;28;19955;-66
2023/10/10 12:21:51;;;;;;;;;;;;;;;-147.89;100.00;60788.38;4215312;28;19956;-64
2023/10/10 12:23:58;;;;;;;;;;;;;;;-147.89;100.00;60788.38;4214927;28;20003;-64
2023/10/10 12:26:00;;;;;;;;;;;;;;;-147.89;100.00;60788.38;4214530;28;20398;-64
2023/10/10 12:28:09;;;;;;;;;;;;;;;-147.89;100.00;60788.38;4223426;28;19934;-62
2023/10/10 12:30:13;;;;;;;;;;;;;;;-147.89;100.00;60788.38;4223015;28;20043;-62
2023/10/10 12:32:26;;;;;;;;;;;;;;;-147.89;100.00;60788.38;4228179;27;20385;-64
2023/10/10 12:34:28;;;;;;;;;;;;;;;-147.89;100.00;60788.38;4230211;28;19923;-63
2023/10/10 12:36:31;;;;;;;;;;;;;;;-147.89;100.00;60788.38;4212544;28;20015;-61
2023/10/10 12:38:33;;;;;;;;;;;;;;;-147.89;100.00;60788.38;4230452;28;20019;-61
2023/10/10 12:40:43;;;;;;;;;;;;;;;-147.89;100.00;60788.38;4230934;28;19924;-59
2023/10/10 12:42:47;;;;;;;;;;;;;;;-147.89;100.00;60788.38;4229769;28;19927;-61
2023/10/10 12:44:49;;;;;;;;;;;;;;;-147.89;100.00;60788.38;4228225;28;20018;-61
2023/10/10 12:46:54;;;;;;;;;;;;;;;-147.89;100.00;60788.38;4230181;28;20011;-64
2023/10/10 12:48:56;;;;;;;;;;;;;;;-147.89;100.00;60788.38;4231630;28;20395;-60
2023/10/10 12:51:09;;;;;;;;;;;;;;;-147.89;100.00;60788.38;4228635;28;19932;-61
2023/10/10 12:53:15;;;;;;;;;;;;;;;-147.89;100.00;60788.38;4229974;28;19978;-60
2023/10/10 12:55:18;;;;;;;;;;;;;;;-147.89;100.00;60788.38;4231723;28;19923;-57
2023/10/10 12:57:23;;;;;;;;;;;;;;;-147.89;100.00;60788.38;4231082;28;19974;-62